Birjand, Birjand International Airport (OIMB)

NameBirjand International Airport
CityBirjand
CountryIran (Islamic Republic of)
ICAOOIMB
IATAXBJ
Altitude1509 m
CoordinatesGoogle Map
Live Air TrafficLiveATC.net
METAROIMB 222000Z 14006KT CAVOK 26/01 Q1012
2019-07-22 20:00:00 Wind: Southeast (140°) 3.09 m/s - Visibility: > 10000 m - Weather: CAVOK - Temperature: 26 °C - Dew point: 1 °C - Humidity: 19.5% - Pressure: 1012 hPa

Sorry, no flights used the airport in this database.